Time;durP1;ratioP1;P1;durP2;ratioP2;P2;SDS_P1;SDS_P2;PMS_P1;PMS_P2;Temp;Humidity;BMP_temperature;BMP_pressure;BME280_temperature;BME280_humidity;BME280_pressure;Samples;Min_cycle;Max_cycle;Signal;HPM_P1;HPM_P2
2022/09/03 00:01:35;;;;;;;1.75;1.25;;;21.90;62.10;;;;;;4991745;28;20045;-70
2022/09/03 00:04:14;;;;;;;3.75;1.08;;;21.90;62.30;;;;;;4986477;28;20053;-70
2022/09/03 00:06:47;;;;;;;3.85;1.00;;;21.80;62.70;;;;;;4977005;28;20034;-69
2022/09/03 00:09:23;;;;;;;5.03;1.17;;;21.80;62.50;;;;;;4985282;28;20446;-69
2022/09/03 00:12:13;;;;;;;2.20;1.10;;;21.80;62.20;;;;;;4975009;28;20106;-70
2022/09/03 00:14:46;;;;;;;3.25;1.15;;;21.80;62.50;;;;;;4973620;28;20045;-70
2022/09/03 00:17:40;;;;;;;4.43;1.00;;;21.70;62.60;;;;;;4975903;28;20050;-70
2022/09/03 00:20:16;;;;;;;6.25;1.17;;;21.70;62.90;;;;;;4967420;28;20065;-69
2022/09/03 00:22:47;;;;;;;7.55;1.23;;;21.70;62.50;;;;;;4971898;28;20039;-70
2022/09/03 00:25:24;;;;;;;2.83;1.30;;;21.70;62.30;;;;;;4974834;28;20501;-70
2022/09/03 00:27:54;;;;;;;1.73;1.10;;;21.60;62.40;;;;;;4975624;28;20026;-69
2022/09/03 00:30:20;;;;;;;1.60;1.10;;;21.60;62.20;;;;;;4975383;28;20043;-70
2022/09/03 00:33:09;;;;;;;1.30;1.00;;;21.60;62.10;;;;;;4974934;28;20030;-70
2022/09/03 00:35:43;;;;;;;2.10;1.20;;;21.50;62.10;;;;;;4972461;28;20478;-70
2022/09/03 00:38:09;;;;;;;1.25;1.10;;;21.50;62.60;;;;;;4968507;28;20437;-70
2022/09/03 00:40:59;;;;;;;3.53;1.10;;;21.50;62.80;;;;;;4971466;28;20031;-69
2022/09/03 00:43:54;;;;;;;1.42;1.10;;;21.50;62.90;;;;;;4973558;28;20494;-70
2022/09/03 00:46:35;;;;;;;5.63;1.45;;;21.40;62.70;;;;;;4969492;28;20034;-70
2022/09/03 00:49:04;;;;;;;4.22;1.20;;;21.40;63.10;;;;;;4973401;28;20491;-70
2022/09/03 00:51:38;;;;;;;3.13;1.05;;;21.40;63.20;;;;;;4974134;28;20074;-70
2022/09/03 00:54:10;;;;;;;2.50;1.10;;;21.40;63.10;;;;;;4972358;28;20367;-69
2022/09/03 00:57:01;;;;;;;3.75;1.10;;;21.30;63.20;;;;;;4983067;28;20442;-70
2022/09/03 00:59:51;;;;;;;4.35;1.10;;;21.30;62.90;;;;;;4973129;28;20046;-69
2022/09/03 01:02:22;;;;;;;4.90;1.20;;;21.20;62.60;;;;;;4983143;28;20031;-69
2022/09/03 01:05:06;;;;;;;1.40;0.80;;;21.20;62.50;;;;;;4973252;28;20081;-69
2022/09/03 01:07:54;;;;;;;3.35;1.13;;;21.20;62.50;;;;;;4975674;28;20808;-69
2022/09/03 01:10:43;;;;;;;5.32;1.50;;;21.20;62.60;;;;;;4972603;28;20098;-70
2022/09/03 01:13:17;;;;;;;3.40;1.45;;;21.20;62.70;;;;;;4973491;28;20046;-69
2022/09/03 01:16:14;;;;;;;5.07;1.13;;;21.10;62.70;;;;;;4972552;28;20034;-70
2022/09/03 01:18:54;;;;;;;4.03;1.33;;;21.10;63.00;;;;;;4971134;28;20061;-69
2022/09/03 01:21:33;;;;;;;3.65;1.63;;;21.10;63.20;;;;;;4983079;28;20030;-70
2022/09/03 01:24:30;;;;;;;2.53;1.60;;;21.10;63.10;;;;;;4973903;28;20070;-69
2022/09/03 01:27:27;;;;;;;3.78;1.30;;;21.00;63.10;;;;;;4972479;28;20466;-69
2022/09/03 01:30:02;;;;;;;3.28;1.10;;;21.00;63.30;;;;;;4972811;28;20122;-70
2022/09/03 01:32:57;;;;;;;5.78;1.90;;;21.00;63.10;;;;;;4973103;28;20042;-70
2022/09/03 01:35:42;;;;;;;4.63;1.02;;;20.90;63.50;;;;;;4975841;28;20114;-69
2022/09/03 01:38:47;;;;;;;4.38;1.40;;;20.90;63.60;;;;;;4974079;28;20046;-69
2022/09/03 01:42:14;;;;;;;2.35;1.20;;;20.90;63.80;;;;;;4976167;28;20034;-69
2022/09/03 01:45:11;;;;;;;1.35;1.00;;;20.80;63.70;;;;;;4973661;28;20367;-69
2022/09/03 01:47:49;;;;;;;2.72;1.17;;;20.80;63.80;;;;;;4975454;28;20034;-69
2022/09/03 01:50:47;;;;;;;6.88;1.10;;;20.80;64.00;;;;;;4965765;28;20176;-69
2022/09/03 01:53:30;;;;;;;5.85;2.25;;;20.80;64.00;;;;;;4974101;28;20035;-69
2022/09/03 01:56:21;;;;;;;1.33;1.00;;;20.80;64.20;;;;;;4973279;28;20106;-69
2022/09/03 01:59:14;;;;;;;2.92;1.58;;;20.70;64.20;;;;;;4970855;28;20047;-69
2022/09/03 02:02:23;;;;;;;1.40;1.10;;;20.70;64.40;;;;;;4972709;28;20065;-69
2022/09/03 02:05:07;;;;;;;2.30;1.20;;;20.60;64.80;;;;;;4965808;28;20046;-69
2022/09/03 02:07:36;;;;;;;4.40;1.30;;;20.60;65.40;;;;;;4983460;28;20092;-69
2022/09/03 02:10:06;;;;;;;2.47;1.30;;;20.60;65.20;;;;;;4979279;28;20110;-69
2022/09/03 02:12:34;;;;;;;2.40;1.20;;;20.60;65.20;;;;;;4976934;28;20125;-69
2022/09/03 02:15:05;;;;;;;4.18;1.50;;;20.60;65.10;;;;;;4975689;28;20034;-69
2022/09/03 02:17:32;;;;;;;3.55;1.25;;;20.60;65.20;;;;;;4976522;28;20043;-70
2022/09/03 02:20:02;;;;;;;3.63;1.20;;;20.50;65.10;;;;;;4976695;28;20038;-69
2022/09/03 02:22:28;;;;;;;5.57;1.30;;;20.50;65.00;;;;;;4978326;28;20045;-69
2022/09/03 02:24:54;;;;;;;6.13;1.38;;;20.50;65.50;;;;;;4970020;28;20022;-69
2022/09/03 02:27:19;;;;;;;1.88;1.10;;;20.50;65.10;;;;;;4985148;28;20034;-69
2022/09/03 02:29:46;;;;;;;6.85;1.50;;;20.40;65.10;;;;;;4983742;28;20034;-69
2022/09/03 02:32:13;;;;;;;1.90;1.05;;;20.50;65.20;;;;;;4975525;28;20038;-69
2022/09/03 02:34:40;;;;;;;2.72;1.40;;;20.40;65.60;;;;;;4988074;28;20417;-69
2022/09/03 02:37:18;;;;;;;1.73;1.08;;;20.40;65.30;;;;;;4976612;28;20043;-69
2022/09/03 02:39:44;;;;;;;15.23;1.40;;;20.40;65.50;;;;;;4963929;28;20035;-69
2022/09/03 02:42:12;;;;;;;5.00;1.50;;;20.40;65.40;;;;;;4983338;28;20117;-69
2022/09/03 02:44:45;;;;;;;6.00;1.23;;;20.40;65.50;;;;;;4975900;28;20042;-69
2022/09/03 02:47:11;;;;;;;3.83;1.10;;;20.40;65.50;;;;;;4969844;28;20027;-69
2022/09/03 02:49:37;;;;;;;3.80;1.13;;;20.30;65.40;;;;;;4975526;28;20507;-69
2022/09/03 02:52:08;;;;;;;2.63;1.30;;;20.30;65.30;;;;;;4976722;28;20039;-69
2022/09/03 02:54:38;;;;;;;6.13;1.38;;;20.30;65.30;;;;;;4968506;28;20027;-69
2022/09/03 02:57:14;;;;;;;2.90;1.50;;;20.30;65.50;;;;;;4974769;28;20459;-69
2022/09/03 02:59:43;;;;;;;1.95;1.20;;;20.20;65.50;;;;;;4976210;28;20510;-69
2022/09/03 03:02:10;;;;;;;2.15;1.30;;;20.20;65.70;;;;;;4973472;28;20402;-69
2022/09/03 03:04:37;;;;;;;4.75;1.38;;;20.20;65.60;;;;;;4975328;28;20490;-69
2022/09/03 03:07:02;;;;;;;1.45;1.10;;;20.20;65.70;;;;;;4974689;28;20034;-69
2022/09/03 03:09:28;;;;;;;3.85;1.48;;;20.20;65.60;;;;;;4975873;28;20034;-69
2022/09/03 03:11:54;;;;;;;1.90;1.17;;;20.10;65.50;;;;;;4975308;28;20035;-69
2022/09/03 03:14:21;;;;;;;2.13;1.30;;;20.10;65.80;;;;;;4975794;28;20089;-69
2022/09/03 03:16:47;;;;;;;2.42;1.23;;;20.10;65.70;;;;;;4974854;28;20033;-69
2022/09/03 03:19:13;;;;;;;3.00;1.25;;;20.10;66.70;;;;;;4976453;28;20039;-69
2022/09/03 03:21:39;;;;;;;1.40;1.17;;;20.10;66.50;;;;;;4974861;28;20033;-69
2022/09/03 03:24:05;;;;;;;7.53;1.40;;;20.10;66.40;;;;;;4975789;28;20039;-68
2022/09/03 03:26:31;;;;;;;2.72;1.38;;;20.10;66.60;;;;;;4975183;28;20033;-68
2022/09/03 03:28:59;;;;;;;4.22;1.23;;;20.00;66.40;;;;;;4976129;28;20031;-67
2022/09/03 03:31:26;;;;;;;4.05;1.35;;;20.00;66.40;;;;;;4977020;28;20177;-69
2022/09/03 03:33:53;;;;;;;3.17;1.50;;;20.00;66.40;;;;;;4977014;28;20039;-69
2022/09/03 03:36:20;;;;;;;8.05;1.30;;;20.00;66.80;;;;;;4976574;28;20078;-69
2022/09/03 03:38:46;;;;;;;3.30;1.60;;;20.00;66.80;;;;;;4977333;28;20081;-69
2022/09/03 03:41:21;;;;;;;6.05;1.38;;;19.90;66.90;;;;;;4973281;28;20055;-69
2022/09/03 03:43:51;;;;;;;2.67;1.23;;;20.00;66.80;;;;;;4971401;28;20110;-69
2022/09/03 03:46:17;;;;;;;2.45;1.63;;;19.90;66.60;;;;;;4961666;28;20126;-69
2022/09/03 03:48:42;;;;;;;1.20;1.10;;;19.90;67.00;;;;;;4975381;28;20462;-69
2022/09/03 03:51:09;;;;;;;16.77;1.33;;;19.80;67.00;;;;;;4974372;28;20046;-69
2022/09/03 03:53:36;;;;;;;2.38;1.40;;;19.90;66.90;;;;;;4975140;28;20034;-69
2022/09/03 03:56:05;;;;;;;2.28;1.48;;;19.80;66.90;;;;;;4975019;28;20026;-69
2022/09/03 03:58:32;;;;;;;3.05;1.40;;;19.80;67.60;;;;;;4990544;28;20481;-69
2022/09/03 04:01:17;;;;;;;2.15;1.33;;;19.80;67.60;;;;;;4975084;28;20089;-69
2022/09/03 04:03:43;;;;;;;3.10;1.52;;;19.80;67.40;;;;;;4985973;28;20054;-68
2022/09/03 04:06:10;;;;;;;2.20;1.63;;;19.70;67.80;;;;;;4974747;28;20086;-69
2022/09/03 04:08:38;;;;;;;1.42;1.30;;;19.70;67.60;;;;;;4992676;28;20038;-69
2022/09/03 04:11:06;;;;;;;2.72;1.52;;;19.70;67.60;;;;;;4993630;28;20034;-69
2022/09/03 04:13:36;;;;;;;2.10;1.40;;;19.70;67.60;;;;;;4973946;28;20127;-69
2022/09/03 04:16:11;;;;;;;2.40;1.30;;;19.70;67.70;;;;;;4973682;28;20027;-69
2022/09/03 04:18:38;;;;;;;2.22;1.55;;;19.70;67.60;;;;;;4973915;28;20045;-69
2022/09/03 04:21:21;;;;;;;4.20;1.63;;;19.60;67.60;;;;;;4975325;28;20356;-69
2022/09/03 04:23:48;;;;;;;2.65;1.40;;;19.60;67.50;;;;;;4993679;28;20030;-69
2022/09/03 04:26:19;;;;;;;6.40;1.73;;;19.60;67.50;;;;;;4985635;28;20062;-68
2022/09/03 04:28:44;;;;;;;5.07;2.22;;;19.60;67.60;;;;;;4976126;28;20042;-69
2022/09/03 04:31:13;;;;;;;3.33;1.63;;;19.50;67.80;;;;;;4981781;28;20026;-69
2022/09/03 04:33:39;;;;;;;7.95;1.65;;;19.60;68.60;;;;;;4972251;28;20557;-69
2022/09/03 04:36:05;;;;;;;2.88;1.42;;;19.50;68.70;;;;;;4971884;28;20019;-68
2022/09/03 04:38:31;;;;;;;1.80;1.30;;;19.50;69.00;;;;;;4976636;28;20041;-69
2022/09/03 04:40:58;;;;;;;2.15;1.50;;;19.40;68.50;;;;;;4973625;28;20023;-69
2022/09/03 04:43:24;;;;;;;8.55;1.67;;;19.40;68.60;;;;;;4975017;28;20050;-69
2022/09/03 04:45:50;;;;;;;3.53;1.40;;;19.50;68.60;;;;;;4968598;28;20039;-69
2022/09/03 04:48:15;;;;;;;3.45;1.60;;;19.40;68.40;;;;;;4976060;28;20027;-69
2022/09/03 04:50:41;;;;;;;2.97;1.40;;;19.40;68.70;;;;;;4973394;28;20035;-69
2022/09/03 04:53:07;;;;;;;4.57;1.50;;;19.40;68.70;;;;;;4975342;28;20049;-69
2022/09/03 04:55:36;;;;;;;2.28;1.45;;;19.40;69.00;;;;;;4976263;28;20031;-69
2022/09/03 04:58:03;;;;;;;5.32;1.35;;;19.30;68.90;;;;;;4970655;28;20035;-68
2022/09/03 05:00:29;;;;;;;1.85;1.30;;;19.40;69.30;;;;;;4974922;28;20378;-69
2022/09/03 05:02:58;;;;;;;7.10;1.40;;;19.30;69.20;;;;;;4975181;28;20027;-69
2022/09/03 05:05:24;;;;;;;1.83;1.25;;;19.30;69.00;;;;;;4977089;28;20058;-70
2022/09/03 05:07:50;;;;;;;1.45;1.20;;;19.30;69.30;;;;;;4972886;28;20026;-69
2022/09/03 05:10:19;;;;;;;1.75;1.40;;;19.30;69.40;;;;;;4974949;28;20435;-68
2022/09/03 05:12:46;;;;;;;3.42;1.30;;;19.30;69.60;;;;;;4974800;28;20034;-68
2022/09/03 05:15:12;;;;;;;2.60;1.48;;;19.30;69.80;;;;;;4974784;28;20034;-69
2022/09/03 05:17:38;;;;;;;3.55;1.27;;;19.30;69.80;;;;;;4975736;28;20153;-68
2022/09/03 05:20:06;;;;;;;1.83;1.20;;;19.30;69.80;;;;;;4971635;28;20450;-69
2022/09/03 05:22:33;;;;;;;4.20;1.42;;;19.20;70.20;;;;;;4980999;28;20041;-68
2022/09/03 05:24:59;;;;;;;4.32;1.50;;;19.20;70.00;;;;;;4972913;28;20035;-68
2022/09/03 05:27:24;;;;;;;3.30;1.40;;;19.20;70.10;;;;;;4969646;28;20494;-69
2022/09/03 05:29:50;;;;;;;3.53;1.40;;;19.20;70.50;;;;;;4974218;28;20027;-69
2022/09/03 05:32:16;;;;;;;3.70;1.65;;;19.20;70.50;;;;;;4972117;28;20170;-68
2022/09/03 05:34:42;;;;;;;3.75;1.60;;;19.10;70.40;;;;;;4966020;28;20037;-68
2022/09/03 05:37:09;;;;;;;3.50;1.38;;;19.20;70.30;;;;;;4977487;28;20045;-69
2022/09/03 05:39:34;;;;;;;3.05;1.60;;;19.20;70.20;;;;;;4974354;28;20393;-68
2022/09/03 05:42:00;;;;;;;4.28;1.52;;;19.10;70.20;;;;;;4969698;28;20035;-69
2022/09/03 05:44:26;;;;;;;2.75;1.50;;;19.10;70.10;;;;;;4983819;28;20081;-69
2022/09/03 05:46:52;;;;;;;2.75;1.42;;;19.10;70.30;;;;;;4974210;28;20114;-68
2022/09/03 05:49:18;;;;;;;2.65;1.50;;;19.10;70.20;;;;;;4971887;28;20034;-68
2022/09/03 05:51:43;;;;;;;1.83;1.40;;;19.10;70.20;;;;;;4975134;28;20053;-69
2022/09/03 05:54:10;;;;;;;2.13;1.55;;;19.10;70.70;;;;;;4965270;28;20043;-68
2022/09/03 05:56:38;;;;;;;4.90;1.50;;;19.10;70.90;;;;;;4966610;28;20039;-68
2022/09/03 05:59:08;;;;;;;1.77;1.27;;;19.10;70.90;;;;;;4960602;28;20043;-69
2022/09/03 06:01:52;;;;;;;2.20;1.30;;;19.10;71.00;;;;;;4972359;28;20030;-68
2022/09/03 06:04:18;;;;;;;2.97;1.52;;;19.00;71.20;;;;;;4972131;28;20054;-68
2022/09/03 06:06:45;;;;;;;2.83;1.20;;;19.00;71.20;;;;;;4971773;28;20229;-68
2022/09/03 06:09:13;;;;;;;9.05;1.40;;;19.00;71.20;;;;;;4972972;28;20031;-68
2022/09/03 06:11:41;;;;;;;3.20;1.50;;;19.00;71.20;;;;;;4972013;28;20451;-69
2022/09/03 06:14:08;;;;;;;2.60;1.30;;;19.00;71.20;;;;;;4972727;28;20101;-69
2022/09/03 06:16:37;;;;;;;3.80;1.50;;;19.00;70.90;;;;;;4972938;28;20113;-68
2022/09/03 06:19:06;;;;;;;25.08;3.08;;;19.00;70.80;;;;;;4978561;28;20038;-71
2022/09/03 06:21:32;;;;;;;1.65;1.13;;;19.10;72.90;;;;;;4978296;28;20484;-70
2022/09/03 06:23:58;;;;;;;2.03;1.30;;;19.00;73.60;;;;;;4974846;28;20113;-71
2022/09/03 06:26:24;;;;;;;3.08;1.70;;;19.00;74.20;;;;;;4974325;28;20117;-70
2022/09/03 06:28:50;;;;;;;2.33;1.30;;;19.10;74.60;;;;;;4977907;28;20031;-70
2022/09/03 06:31:18;;;;;;;8.93;1.40;;;19.10;74.60;;;;;;4982207;28;20031;-70
2022/09/03 06:33:46;;;;;;;5.70;1.52;;;19.10;74.70;;;;;;4972577;28;20031;-71
2022/09/03 06:36:15;;;;;;;5.38;1.45;;;19.10;74.60;;;;;;4974478;28;20039;-70
2022/09/03 06:38:41;;;;;;;3.72;1.13;;;19.10;74.20;;;;;;4979780;28;20097;-69
2022/09/03 06:41:09;;;;;;;1.20;1.10;;;19.10;74.90;;;;;;4985742;28;20037;-70
2022/09/03 06:43:37;;;;;;;2.15;1.15;;;19.10;74.70;;;;;;4985356;28;20134;-70
2022/09/03 06:46:06;;;;;;;2.28;1.23;;;19.10;74.50;;;;;;4980639;28;20134;-70
2022/09/03 06:48:33;;;;;;;1.92;1.15;;;19.10;74.40;;;;;;4981098;28;20034;-71
2022/09/03 06:51:01;;;;;;;1.90;1.42;;;19.20;75.00;;;;;;4986788;28;20117;-70
2022/09/03 06:53:29;;;;;;;1.38;1.10;;;19.20;74.80;;;;;;4974468;28;20046;-70
2022/09/03 06:55:57;;;;;;;1.33;1.00;;;19.20;74.70;;;;;;4976891;28;20496;-70
2022/09/03 06:58:24;;;;;;;1.52;1.13;;;19.30;74.70;;;;;;4976316;28;20050;-70
2022/09/03 07:00:53;;;;;;;8.55;2.80;;;19.20;75.10;;;;;;4971426;28;20441;-70
2022/09/03 07:03:20;;;;;;;1.65;1.33;;;19.20;74.50;;;;;;4974490;28;20038;-70
2022/09/03 07:05:46;;;;;;;0.93;0.82;;;19.30;74.40;;;;;;4973592;28;20041;-71
2022/09/03 07:08:12;;;;;;;1.50;1.00;;;19.30;74.90;;;;;;4969621;28;20041;-70
2022/09/03 07:10:38;;;;;;;1.50;1.40;;;19.30;75.50;;;;;;4967218;28;20475;-70
2022/09/03 07:13:07;;;;;;;3.72;1.25;;;19.30;75.30;;;;;;4975695;28;20416;-71
2022/09/03 07:15:33;;;;;;;2.45;0.90;;;19.30;74.90;;;;;;4971421;28;20438;-70
2022/09/03 07:17:59;;;;;;;2.60;1.40;;;19.30;75.40;;;;;;4973415;28;20042;-71
2022/09/03 07:20:24;;;;;;;1.52;1.30;;;19.30;75.40;;;;;;4975839;28;20038;-71
2022/09/03 07:22:54;;;;;;;4.55;1.33;;;19.40;74.80;;;;;;4973214;28;20478;-70
2022/09/03 07:25:21;;;;;;;6.82;1.50;;;19.40;74.60;;;;;;4972224;28;20123;-70
2022/09/03 07:27:48;;;;;;;9.32;1.50;;;19.40;74.90;;;;;;4975306;28;20037;-70
2022/09/03 07:30:14;;;;;;;4.35;1.27;;;19.40;74.70;;;;;;4973199;28;20100;-72
2022/09/03 07:32:39;;;;;;;2.63;1.50;;;19.40;75.00;;;;;;4976123;28;20038;-73
2022/09/03 07:35:06;;;;;;;1.80;1.50;;;19.50;74.70;;;;;;4977799;28;20129;-71
2022/09/03 07:37:32;;;;;;;5.35;1.27;;;19.40;74.70;;;;;;4976099;28;20085;-71
2022/09/03 07:39:58;;;;;;;1.60;1.20;;;19.50;74.60;;;;;;4976304;28;20038;-71
2022/09/03 07:42:26;;;;;;;6.50;1.45;;;19.50;74.00;;;;;;4978445;28;20390;-71
2022/09/03 07:44:51;;;;;;;2.42;1.50;;;19.60;73.70;;;;;;4980311;28;20084;-71
2022/09/03 07:47:18;;;;;;;2.47;1.30;;;19.60;73.80;;;;;;4983626;28;20121;-71
2022/09/03 07:49:44;;;;;;;1.58;1.20;;;19.60;73.90;;;;;;4979789;28;20019;-71
2022/09/03 07:52:10;;;;;;;1.88;1.10;;;19.60;74.00;;;;;;4978115;28;20042;-71
2022/09/03 07:54:36;;;;;;;2.20;1.33;;;19.60;73.90;;;;;;4979794;28;20030;-71
2022/09/03 07:57:01;;;;;;;1.83;1.30;;;19.70;73.90;;;;;;4977803;28;20027;-71
2022/09/03 07:59:27;;;;;;;1.63;0.90;;;19.70;73.60;;;;;;4973369;28;20486;-71
2022/09/03 08:01:53;;;;;;;1.65;1.30;;;19.80;74.00;;;;;;4973206;28;20107;-71
2022/09/03 08:04:20;;;;;;;1.55;1.10;;;19.80;73.50;;;;;;4971646;28;20134;-72
2022/09/03 08:06:47;;;;;;;3.00;1.10;;;19.80;73.40;;;;;;4976029;28;20039;-71
2022/09/03 08:09:13;;;;;;;2.97;1.27;;;19.80;73.20;;;;;;4984777;28;20378;-71
2022/09/03 08:11:42;;;;;;;2.58;1.45;;;19.90;73.20;;;;;;4974523;28;20039;-71
2022/09/03 08:14:10;;;;;;;2.53;1.13;;;19.90;73.20;;;;;;4983462;28;20035;-72
2022/09/03 08:16:41;;;;;;;1.25;1.08;;;19.90;73.80;;;;;;4962513;28;20031;-71
2022/09/03 08:19:07;;;;;;;3.85;1.20;;;19.90;73.20;;;;;;4958213;28;20058;-71
2022/09/03 08:21:34;;;;;;;3.72;1.42;;;19.90;73.50;;;;;;4970133;28;20113;-74
2022/09/03 08:24:02;;;;;;;2.17;1.30;;;20.00;73.70;;;;;;4966583;28;20042;-71
2022/09/03 08:26:30;;;;;;;1.95;1.30;;;20.10;73.40;;;;;;4980170;28;20035;-71
2022/09/03 08:28:57;;;;;;;14.55;1.85;;;20.10;73.40;;;;;;4976992;28;20072;-72
2022/09/03 08:31:26;;;;;;;2.50;1.13;;;20.10;73.00;;;;;;4976197;28;20407;-71
2022/09/03 08:33:55;;;;;;;2.67;1.27;;;20.10;72.60;;;;;;4974140;28;20034;-71
2022/09/03 08:36:32;;;;;;;5.55;1.30;;;20.10;73.20;;;;;;4993366;28;20045;-70
2022/09/03 08:39:03;;;;;;;3.78;1.38;;;20.20;73.00;;;;;;4979346;28;20048;-69
2022/09/03 08:41:50;;;;;;;3.78;1.52;;;20.20;72.90;;;;;;4982020;28;20065;-71
2022/09/03 08:44:38;;;;;;;1.05;0.95;;;20.20;72.50;;;;;;4961370;28;20475;-72
2022/09/03 08:47:13;;;;;;;7.50;1.40;;;20.20;72.80;;;;;;4978519;28;20035;-74
2022/09/03 08:49:56;;;;;;;6.18;1.23;;;20.30;72.60;;;;;;4974008;28;20015;-73
2022/09/03 08:52:31;;;;;;;1.10;1.00;;;20.30;72.50;;;;;;4974784;28;20058;-74
2022/09/03 08:55:19;;;;;;;1.95;1.15;;;20.40;73.30;;;;;;4975200;28;20110;-74
2022/09/03 08:58:08;;;;;;;1.98;1.00;;;20.40;73.70;;;;;;4974912;28;20701;-75
2022/09/03 09:01:01;;;;;;;5.35;1.30;;;20.40;73.80;;;;;;4971367;28;20045;-74
2022/09/03 09:04:03;;;;;;;7.43;1.40;;;20.40;73.20;;;;;;4974368;28;20039;-75
2022/09/03 09:06:45;;;;;;;1.10;0.88;;;20.50;73.50;;;;;;4969934;28;20061;-75
2022/09/03 09:09:26;;;;;;;1.48;1.00;;;20.50;73.70;;;;;;4973495;28;20371;-75
2022/09/03 09:12:27;;;;;;;2.55;1.20;;;20.50;73.50;;;;;;4978244;28;20035;-74
2022/09/03 09:15:12;;;;;;;6.28;1.10;;;20.50;73.50;;;;;;4976777;28;20041;-75
2022/09/03 09:17:54;;;;;;;3.60;1.55;;;20.60;73.70;;;;;;4978831;28;20041;-73
2022/09/03 09:20:47;;;;;;;0.95;0.95;;;20.60;73.50;;;;;;4977487;28;20051;-75
2022/09/03 09:23:18;;;;;;;2.78;1.30;;;20.60;73.70;;;;;;4971125;28;20090;-74
2022/09/03 09:25:49;;;;;;;2.33;1.27;;;20.70;73.30;;;;;;4975951;28;20401;-71
2022/09/03 09:28:19;;;;;;;1.75;1.20;;;20.70;73.40;;;;;;4977402;28;20035;-72
2022/09/03 09:30:48;;;;;;;1.80;1.00;;;20.70;73.20;;;;;;4975516;28;20540;-72
2022/09/03 09:33:15;;;;;;;2.35;1.20;;;20.80;73.20;;;;;;4978461;28;20543;-71
2022/09/03 09:35:44;;;;;;;3.35;1.00;;;20.80;73.10;;;;;;4982253;28;20057;-72
2022/09/03 09:38:10;;;;;;;4.85;1.42;;;20.90;72.80;;;;;;4973855;28;20136;-72
2022/09/03 09:40:40;;;;;;;7.97;1.80;;;20.90;72.20;;;;;;4979296;28;20122;-74
2022/09/03 09:43:12;;;;;;;4.88;1.15;;;21.00;72.20;;;;;;4980711;28;20053;-73
2022/09/03 09:45:40;;;;;;;5.78;1.15;;;21.00;71.70;;;;;;4971148;28;20034;-72
2022/09/03 09:48:12;;;;;;;1.67;1.10;;;21.10;72.40;;;;;;4975844;28;20064;-71
2022/09/03 09:50:37;;;;;;;2.28;1.33;;;21.10;72.20;;;;;;4971929;28;20030;-71
2022/09/03 09:53:13;;;;;;;2.72;1.27;;;21.10;72.00;;;;;;4972760;28;20459;-72
2022/09/03 09:55:49;;;;;;;3.80;1.50;;;21.30;72.00;;;;;;4961442;28;20031;-72
2022/09/03 09:58:18;;;;;;;15.43;1.60;;;21.20;71.20;;;;;;4972716;28;20047;-71
2022/09/03 10:00:55;;;;;;;1.70;0.93;;;21.30;71.90;;;;;;4961519;28;20054;-72
2022/09/03 10:03:21;;;;;;;2.65;1.05;;;21.40;71.70;;;;;;4974019;28;20493;-72
2022/09/03 10:06:52;;;;;;;5.10;1.20;;;21.40;71.80;;;;;;4978984;28;20047;-69
2022/09/03 10:08:46;;;;;;;6.65;1.02;;;21.40;71.30;;;;;;4971100;28;20058;-71
2022/09/03 10:11:13;;;;;;;3.20;1.23;;;21.50;71.00;;;;;;4979159;28;20081;-69
2022/09/03 10:13:45;;;;;;;6.20;1.30;;;21.50;70.80;;;;;;4974897;28;20039;-71
2022/09/03 10:16:20;;;;;;;8.85;1.30;;;21.60;71.40;;;;;;4975015;28;20073;-71
2022/09/03 10:19:15;;;;;;;9.45;1.58;;;21.70;70.20;;;;;;4974931;28;20046;-71
2022/09/03 10:21:44;;;;;;;2.38;1.02;;;21.70;69.80;;;;;;4969145;28;20113;-71
2022/09/03 10:24:47;;;;;;;3.97;1.00;;;21.80;69.90;;;;;;4972493;28;20445;-71
2022/09/03 10:27:17;;;;;;;2.28;0.93;;;21.80;69.50;;;;;;4968284;28;20077;-71
2022/09/03 10:29:43;;;;;;;4.10;1.00;;;21.90;69.90;;;;;;4980974;28;20045;-71
2022/09/03 10:32:25;;;;;;;1.67;1.08;;;22.00;69.60;;;;;;4993723;28;20121;-71
2022/09/03 10:35:28;;;;;;;1.90;1.38;;;22.00;70.40;;;;;;4967149;28;20027;-71
2022/09/03 10:38:14;;;;;;;1.50;1.13;;;22.00;70.00;;;;;;4969419;28;20382;-70
2022/09/03 10:40:57;;;;;;;2.65;1.42;;;22.10;69.90;;;;;;4972069;28;20153;-70
2022/09/03 10:43:30;;;;;;;2.42;0.90;;;22.10;69.00;;;;;;4968595;28;20093;-71
2022/09/03 10:46:08;;;;;;;1.80;1.10;;;22.20;69.70;;;;;;4983421;28;20034;-74
2022/09/03 10:48:55;;;;;;;4.65;1.08;;;22.20;69.70;;;;;;4964480;28;20039;-72
2022/09/03 10:51:52;;;;;;;5.93;1.50;;;22.30;69.60;;;;;;4980398;28;20061;-72
2022/09/03 10:54:38;;;;;;;2.85;1.27;;;22.40;69.00;;;;;;4939192;28;20043;-72
2022/09/03 10:57:15;;;;;;;2.33;1.20;;;22.40;67.90;;;;;;4971900;28;20089;-72
2022/09/03 11:00:02;;;;;;;4.80;1.30;;;22.50;67.60;;;;;;4971179;28;20035;-72
2022/09/03 11:02:46;;;;;;;3.60;0.88;;;22.50;66.70;;;;;;4982060;28;20030;-72
2022/09/03 11:05:20;;;;;;;1.42;0.95;;;22.60;68.30;;;;;;4986228;28;20403;-72
2022/09/03 11:07:57;;;;;;;1.77;0.95;;;22.70;68.70;;;;;;4981577;28;20070;-72
2022/09/03 11:10:45;;;;;;;17.17;1.17;;;22.70;67.90;;;;;;4980776;28;20030;-72
2022/09/03 11:13:23;;;;;;;7.32;1.45;;;22.80;66.60;;;;;;4972521;28;20035;-72
2022/09/03 11:15:58;;;;;;;1.08;1.02;;;22.70;66.90;;;;;;4976719;28;20076;-72
2022/09/03 11:18:23;;;;;;;6.40;1.35;;;22.80;66.00;;;;;;4978015;28;20374;-71
2022/09/03 11:20:54;;;;;;;4.00;1.30;;;22.90;66.30;;;;;;4983941;28;20066;-71
2022/09/03 11:23:23;;;;;;;3.03;1.35;;;22.90;65.50;;;;;;4989556;28;20554;-70
2022/09/03 11:25:55;;;;;;;1.95;1.10;;;23.00;64.70;;;;;;4975164;28;20042;-71
2022/09/03 11:28:56;;;;;;;4.23;1.43;;;23.00;64.50;;;;;;4974879;28;20039;-72
2022/09/03 11:31:31;;;;;;;3.65;1.25;;;23.10;65.80;;;;;;4959787;28;20038;-72
2022/09/03 11:34:15;;;;;;;3.20;1.00;;;23.10;66.30;;;;;;4978635;28;20031;-71
2022/09/03 11:36:41;;;;;;;3.78;1.20;;;23.20;65.40;;;;;;4975049;28;20438;-71
2022/09/03 11:39:31;;;;;;;4.32;1.02;;;23.20;64.50;;;;;;4984071;28;20482;-71
2022/09/03 11:41:58;;;;;;;4.28;1.15;;;23.30;63.50;;;;;;4984572;28;20023;-71
2022/09/03 11:44:41;;;;;;;5.00;1.20;;;23.30;63.60;;;;;;4977883;28;20034;-71
2022/09/03 11:47:22;;;;;;;2.80;1.00;;;23.40;64.50;;;;;;4980270;28;20034;-73
2022/09/03 11:49:51;;;;;;;5.93;1.00;;;23.50;64.40;;;;;;4972238;28;20043;-76
2022/09/03 11:52:27;;;;;;;3.15;1.05;;;23.50;63.80;;;;;;4973859;28;20085;-75
2022/09/03 11:54:53;;;;;;;3.67;1.08;;;23.60;63.30;;;;;;4976141;28;20113;-74
2022/09/03 11:57:30;;;;;;;9.40;1.35;;;23.70;63.00;;;;;;4974909;28;20117;-72
2022/09/03 12:00:23;;;;;;;5.25;1.20;;;23.70;63.30;;;;;;4985363;28;20038;-70
2022/09/03 12:03:00;;;;;;;11.63;1.30;;;23.80;62.40;;;;;;4980430;28;20042;-71
2022/09/03 12:05:26;;;;;;;6.15;1.10;;;23.80;63.70;;;;;;4970755;28;20294;-71
2022/09/03 12:08:09;;;;;;;2.80;1.00;;;23.90;63.60;;;;;;4977902;28;20154;-71
2022/09/03 12:11:03;;;;;;;2.78;0.70;;;23.90;62.20;;;;;;4980665;28;20133;-70
2022/09/03 12:13:44;;;;;;;5.05;1.00;;;23.90;61.50;;;;;;4970295;28;20023;-70
2022/09/03 12:16:48;;;;;;;5.35;0.73;;;24.00;61.00;;;;;;4970133;28;20052;-70
2022/09/03 12:19:25;;;;;;;1.73;0.82;;;24.00;62.80;;;;;;4971927;28;21115;-69
2022/09/03 12:21:51;;;;;;;4.95;0.98;;;24.10;64.20;;;;;;4977162;28;20064;-71
2022/09/03 12:24:18;;;;;;;10.70;1.35;;;24.10;62.80;;;;;;4967568;28;20110;-70
2022/09/03 12:26:46;;;;;;;1.33;0.85;;;24.10;61.30;;;;;;4979989;28;20042;-70
2022/09/03 12:29:24;;;;;;;0.75;0.75;;;24.20;61.30;;;;;;4977440;28;20026;-70
2022/09/03 12:31:50;;;;;;;1.45;0.93;;;24.30;61.50;;;;;;4980588;28;20469;-70
2022/09/03 12:34:19;;;;;;;1.65;0.95;;;24.30;61.00;;;;;;4987192;28;20038;-69
2022/09/03 12:36:53;;;;;;;6.82;1.15;;;24.30;61.30;;;;;;4978500;28;20053;-70
2022/09/03 12:39:20;;;;;;;0.88;0.77;;;24.40;61.70;;;;;;4975182;28;20045;-70
2022/09/03 12:42:05;;;;;;;1.85;1.00;;;24.40;64.00;;;;;;4976191;28;20030;-69
2022/09/03 12:44:40;;;;;;;8.15;1.13;;;24.50;63.00;;;;;;4967566;28;20429;-70
2022/09/03 12:47:16;;;;;;;6.43;1.27;;;24.50;63.10;;;;;;4979493;28;20034;-71
2022/09/03 12:49:47;;;;;;;1.63;1.10;;;24.60;63.40;;;;;;4986378;28;20031;-70
2022/09/03 12:52:32;;;;;;;1.08;0.80;;;24.50;62.90;;;;;;4979206;28;20058;-69
2022/09/03 12:55:13;;;;;;;4.22;1.25;;;24.60;64.20;;;;;;4980495;28;20125;-68
2022/09/03 12:57:50;;;;;;;0.47;0.47;;;24.60;63.20;;;;;;4982619;28;20047;-72
2022/09/03 13:00:17;;;;;;;0.80;0.70;;;24.60;65.30;;;;;;4982378;28;20061;-70
2022/09/03 13:02:57;;;;;;;1.92;0.70;;;24.60;65.70;;;;;;4983497;28;20038;-71
2022/09/03 13:05:49;;;;;;;2.50;1.10;;;24.70;66.20;;;;;;4982529;28;20049;-71
2022/09/03 13:08:31;;;;;;;1.33;1.00;;;24.60;64.30;;;;;;4983742;28;20038;-70
2022/09/03 13:11:01;;;;;;;3.75;1.00;;;24.60;64.00;;;;;;4976534;28;20026;-71
2022/09/03 13:13:33;;;;;;;4.47;0.80;;;24.60;64.50;;;;;;4972052;28;20038;-71
2022/09/03 13:16:07;;;;;;;6.10;1.08;;;24.70;64.90;;;;;;4978076;28;20771;-71
2022/09/03 13:18:54;;;;;;;1.48;0.80;;;24.60;64.70;;;;;;4973434;28;20393;-72